Time;durP1;ratioP1;P1;durP2;ratioP2;P2;SDS_P1;SDS_P2;PMS_P1;PMS_P2;Temp;Humidity;BMP_temperature;BMP_pressure;BME280_temperature;BME280_humidity;BME280_pressure;Samples;Min_cycle;Max_cycle;Signal;HPM_P1;HPM_P2
2022/10/26 00:00:25;;;;;;;2.83;2.58;;;;;;;;;;5096266;28;20204;-84
2022/10/26 00:02:53;;;;;;;3.15;2.22;;;;;;;;;;5096154;28;20606;-84
2022/10/26 00:05:21;;;;;;;1.98;1.73;;;;;;;;;;5098364;28;20291;-85
2022/10/26 00:07:50;;;;;;;2.90;2.42;;;;;;;;;;5116178;27;20227;-84
2022/10/26 00:10:20;;;;;;;3.40;2.70;;;;;;;;;;5117343;28;20199;-84
2022/10/26 00:12:50;;;;;;;2.30;2.10;;;;;;;;;;5117071;28;20223;-83
2022/10/26 00:15:18;;;;;;;2.72;2.38;;;;;;;;;;5117391;28;20226;-84
2022/10/26 00:17:46;;;;;;;2.17;1.73;;;;;;;;;;5117215;28;20227;-83
2022/10/26 00:20:14;;;;;;;10.18;4.57;;;;;;;;;;5117079;28;20200;-84
2022/10/26 00:22:41;;;;;;;5.13;3.90;;;;;;;;;;5117238;28;20234;-84
2022/10/26 00:25:11;;;;;;;5.88;3.85;;;;;;;;;;5116734;28;20290;-84
2022/10/26 00:27:38;;;;;;;7.43;4.50;;;;;;;;;;5117122;28;20310;-84
2022/10/26 00:30:07;;;;;;;6.75;3.78;;;;;;;;;;5117125;28;20290;-84
2022/10/26 00:32:35;;;;;;;12.57;5.63;;;;;;;;;;5116925;28;20216;-83
2022/10/26 00:35:03;;;;;;;9.23;4.55;;;;;;;;;;5116667;28;20282;-83
2022/10/26 00:37:31;;;;;;;5.47;3.38;;;;;;;;;;5096590;28;20284;-84
2022/10/26 00:39:58;;;;;;;4.32;2.92;;;;;;;;;;5096034;28;20291;-84
2022/10/26 00:42:27;;;;;;;10.98;5.00;;;;;;;;;;5096460;28;20315;-86
2022/10/26 00:45:01;;;;;;;8.00;3.60;;;;;;;;;;5095674;28;20290;-86
2022/10/26 00:47:42;;;;;;;9.63;3.53;;;;;;;;;;5096040;28;20295;-85
2022/10/26 00:50:14;;;;;;;7.13;3.95;;;;;;;;;;5096210;28;20415;-84
2022/10/26 00:52:41;;;;;;;7.45;3.78;;;;;;;;;;5095899;28;20228;-84
2022/10/26 00:55:09;;;;;;;5.28;2.97;;;;;;;;;;5095058;28;20295;-85
2022/10/26 00:57:40;;;;;;;3.90;2.40;;;;;;;;;;5095274;28;20279;-85
2022/10/26 01:00:09;;;;;;;4.05;3.22;;;;;;;;;;5095349;28;20276;-85
2022/10/26 01:02:36;;;;;;;3.00;2.38;;;;;;;;;;5094460;28;20310;-86
2022/10/26 01:05:06;;;;;;;3.53;2.47;;;;;;;;;;5095594;28;20677;-84
2022/10/26 01:07:34;;;;;;;3.90;2.63;;;;;;;;;;5096015;28;20230;-85
2022/10/26 01:10:02;;;;;;;1.85;1.60;;;;;;;;;;5094942;28;20291;-85
2022/10/26 01:12:29;;;;;;;2.47;1.70;;;;;;;;;;5094759;28;20319;-85
2022/10/26 01:14:58;;;;;;;7.35;4.35;;;;;;;;;;5095363;28;20291;-85
2022/10/26 01:17:49;;;;;;;11.15;6.43;;;;;;;;;;5095337;28;20227;-85
2022/10/26 01:20:48;;;;;;;11.57;6.28;;;;;;;;;;5095322;28;20191;-86
2022/10/26 01:23:23;;;;;;;19.02;9.95;;;;;;;;;;5068755;28;20306;-85
2022/10/26 01:26:51;;;;;;;18.05;7.28;;;;;;;;;;5095093;28;20188;-85
2022/10/26 01:29:54;;;;;;;16.08;7.60;;;;;;;;;;5085425;28;20207;-84
2022/10/26 01:32:26;;;;;;;9.00;5.07;;;;;;;;;;5095425;28;20311;-84
2022/10/26 01:35:00;;;;;;;5.13;3.72;;;;;;;;;;5095685;28;20191;-84
2022/10/26 01:37:31;;;;;;;8.25;4.45;;;;;;;;;;5105519;28;20204;-83
2022/10/26 01:40:06;;;;;;;4.95;2.83;;;;;;;;;;5095699;28;20685;-84
2022/10/26 01:42:35;;;;;;;3.30;2.53;;;;;;;;;;5095719;28;20306;-85
2022/10/26 01:45:07;;;;;;;2.13;1.73;;;;;;;;;;5095422;28;20181;-84
2022/10/26 01:47:38;;;;;;;5.13;2.53;;;;;;;;;;5094579;28;20204;-84
2022/10/26 01:50:07;;;;;;;1.70;1.60;;;;;;;;;;5095352;28;20216;-84
2022/10/26 01:52:34;;;;;;;1.58;1.48;;;;;;;;;;5095260;28;20586;-84
2022/10/26 01:55:03;;;;;;;1.90;1.70;;;;;;;;;;5095492;28;20287;-84
2022/10/26 01:57:34;;;;;;;1.60;1.50;;;;;;;;;;5095359;28;20203;-84
2022/10/26 02:00:07;;;;;;;2.10;2.00;;;;;;;;;;5095252;28;20537;-84
2022/10/26 02:03:00;;;;;;;1.65;1.55;;;;;;;;;;5095321;28;20779;-84
2022/10/26 02:05:39;;;;;;;2.28;2.08;;;;;;;;;;5098120;28;20203;-84
2022/10/26 02:08:27;;;;;;;1.83;1.73;;;;;;;;;;5115087;28;20226;-84
2022/10/26 02:11:09;;;;;;;2.28;2.17;;;;;;;;;;5115091;28;20192;-84
2022/10/26 02:13:44;;;;;;;2.30;2.10;;;;;;;;;;5038412;22;20318;-84
2022/10/26 02:16:21;;;;;;;2.25;2.05;;;;;;;;;;5014796;28;20187;-84
2022/10/26 02:18:55;;;;;;;4.07;2.40;;;;;;;;;;5014563;28;20187;-84
2022/10/26 02:21:28;;;;;;;2.70;2.28;;;;;;;;;;5014674;28;20217;-85
2022/10/26 02:23:57;;;;;;;2.75;2.55;;;;;;;;;;5015014;28;20183;-85
2022/10/26 02:26:28;;;;;;;3.35;2.28;;;;;;;;;;5014307;28;20298;-85
2022/10/26 02:29:01;;;;;;;2.50;2.30;;;;;;;;;;5014315;28;20302;-85
2022/10/26 02:31:29;;;;;;;2.20;2.03;;;;;;;;;;5014491;28;20183;-84
2022/10/26 02:34:03;;;;;;;3.03;2.45;;;;;;;;;;5014309;28;20294;-84
2022/10/26 02:36:34;;;;;;;2.35;2.15;;;;;;;;;;5014685;28;20730;-83
2022/10/26 02:39:04;;;;;;;2.88;2.10;;;;;;;;;;5017852;28;20201;-85
2022/10/26 02:41:33;;;;;;;2.67;1.90;;;;;;;;;;5034329;28;20293;-84
2022/10/26 02:44:07;;;;;;;1.88;1.75;;;;;;;;;;5033907;28;20293;-84
2022/10/26 02:46:35;;;;;;;1.92;1.83;;;;;;;;;;5034527;28;20186;-84
2022/10/26 02:49:04;;;;;;;1.88;1.77;;;;;;;;;;5034082;28;20596;-83
2022/10/26 02:51:37;;;;;;;3.22;2.95;;;;;;;;;;5034105;28;20301;-85
2022/10/26 02:54:13;;;;;;;5.30;2.97;;;;;;;;;;5033852;28;20229;-84
2022/10/26 02:56:45;;;;;;;2.95;2.67;;;;;;;;;;5034354;28;20246;-84
2022/10/26 02:59:16;;;;;;;2.92;2.67;;;;;;;;;;5036707;28;20719;-82
2022/10/26 03:01:43;;;;;;;3.53;3.22;;;;;;;;;;5038281;28;20308;-83
2022/10/26 03:04:12;;;;;;;2.70;2.10;;;;;;;;;;5038850;28;20289;-83
2022/10/26 03:06:39;;;;;;;2.50;2.30;;;;;;;;;;5025256;28;20226;-83
2022/10/26 03:09:07;;;;;;;3.75;2.95;;;;;;;;;;5018747;28;20309;-83
2022/10/26 03:11:34;;;;;;;2.58;2.38;;;;;;;;;;5018494;28;20289;-83
2022/10/26 03:14:02;;;;;;;5.25;3.25;;;;;;;;;;5018381;28;20644;-81
2022/10/26 03:16:29;;;;;;;3.38;2.92;;;;;;;;;;5018554;28;20209;-82
2022/10/26 03:18:57;;;;;;;2.63;2.42;;;;;;;;;;5018775;28;20249;-82
2022/10/26 03:21:27;;;;;;;3.28;3.08;;;;;;;;;;5017777;28;20290;-82
2022/10/26 03:23:55;;;;;;;3.58;3.25;;;;;;;;;;5018251;28;20210;-82
2022/10/26 03:26:22;;;;;;;5.75;3.28;;;;;;;;;;5017961;28;20540;-82
2022/10/26 03:28:49;;;;;;;3.70;2.50;;;;;;;;;;5017825;28;20317;-82
2022/10/26 03:31:17;;;;;;;2.95;2.65;;;;;;;;;;5017933;28;20245;-82
2022/10/26 03:33:44;;;;;;;3.10;2.80;;;;;;;;;;5017458;28;20711;-82
2022/10/26 03:36:12;;;;;;;2.67;2.47;;;;;;;;;;5008076;28;20211;-81
2022/10/26 03:38:41;;;;;;;3.25;2.40;;;;;;;;;;4997992;28;20286;-82
2022/10/26 03:41:08;;;;;;;2.40;2.20;;;;;;;;;;4998101;28;20295;-82
2022/10/26 03:43:36;;;;;;;2.38;2.28;;;;;;;;;;4997929;28;20247;-82
2022/10/26 03:46:03;;;;;;;2.38;2.17;;;;;;;;;;4997635;28;20287;-84
2022/10/26 03:48:31;;;;;;;2.17;2.05;;;;;;;;;;4997770;28;20213;-84
2022/10/26 03:50:59;;;;;;;3.58;2.33;;;;;;;;;;4998089;28;20294;-82
2022/10/26 03:53:26;;;;;;;2.38;2.17;;;;;;;;;;4997608;28;20227;-84
2022/10/26 03:55:55;;;;;;;1.83;1.70;;;;;;;;;;4997865;28;20238;-85
2022/10/26 03:58:22;;;;;;;1.55;1.45;;;;;;;;;;4996999;28;20298;-83
2022/10/26 04:00:50;;;;;;;1.77;1.67;;;;;;;;;;4997641;28;20290;-83
2022/10/26 04:03:18;;;;;;;1.40;1.30;;;;;;;;;;4997447;28;20831;-84
2022/10/26 04:05:45;;;;;;;2.08;1.88;;;;;;;;;;4997790;28;20288;-84
2022/10/26 04:08:13;;;;;;;2.13;1.92;;;;;;;;;;4997666;28;20238;-83
2022/10/26 04:10:40;;;;;;;1.90;1.63;;;;;;;;;;4996644;28;20306;-84
2022/10/26 04:13:10;;;;;;;1.90;1.80;;;;;;;;;;4997980;28;20262;-84
2022/10/26 04:15:37;;;;;;;1.80;1.70;;;;;;;;;;4998316;28;20196;-83
2022/10/26 04:18:05;;;;;;;3.25;2.28;;;;;;;;;;4998065;28;20247;-82
2022/10/26 04:20:35;;;;;;;3.17;2.95;;;;;;;;;;4998440;28;20671;-83
2022/10/26 04:23:05;;;;;;;3.80;3.40;;;;;;;;;;4997893;28;20751;-82
2022/10/26 04:25:34;;;;;;;2.22;1.88;;;;;;;;;;4998322;28;20280;-82
2022/10/26 04:28:02;;;;;;;2.35;2.25;;;;;;;;;;4998016;28;20200;-82
2022/10/26 04:30:32;;;;;;;2.00;1.90;;;;;;;;;;4997511;28;20328;-81
2022/10/26 04:32:59;;;;;;;3.70;2.20;;;;;;;;;;4998033;28;20227;-82
2022/10/26 04:35:27;;;;;;;3.17;2.90;;;;;;;;;;5001093;28;20301;-82
2022/10/26 04:37:58;;;;;;;2.30;2.10;;;;;;;;;;5016961;28;20290;-82
2022/10/26 04:40:26;;;;;;;2.10;1.95;;;;;;;;;;5016887;28;20191;-83
2022/10/26 04:42:54;;;;;;;3.45;2.47;;;;;;;;;;5016568;28;20286;-83
2022/10/26 04:45:22;;;;;;;2.67;2.03;;;;;;;;;;5017827;28;20287;-83
2022/10/26 04:48:00;;;;;;;1.90;1.80;;;;;;;;;;5016781;28;20310;-84
2022/10/26 04:50:28;;;;;;;2.03;1.92;;;;;;;;;;5016726;28;20218;-82
2022/10/26 04:52:55;;;;;;;1.83;1.73;;;;;;;;;;5016275;28;20233;-83
2022/10/26 04:55:23;;;;;;;3.97;2.58;;;;;;;;;;5016419;28;20551;-84
2022/10/26 04:57:50;;;;;;;3.63;2.50;;;;;;;;;;5016393;28;20205;-87
2022/10/26 05:00:18;;;;;;;4.45;2.53;;;;;;;;;;5016569;28;20241;-85
2022/10/26 05:02:46;;;;;;;3.70;2.30;;;;;;;;;;5015970;28;20751;-83
2022/10/26 05:05:15;;;;;;;2.38;2.17;;;;;;;;;;5015830;28;20237;-81
2022/10/26 05:07:42;;;;;;;2.00;1.80;;;;;;;;;;5016538;28;20693;-84
2022/10/26 05:10:10;;;;;;;2.28;1.90;;;;;;;;;;5015596;28;20259;-84
2022/10/26 05:12:38;;;;;;;1.70;1.60;;;;;;;;;;5015587;28;20321;-84
2022/10/26 05:15:07;;;;;;;1.63;1.52;;;;;;;;;;5016139;28;20619;-82
2022/10/26 05:17:34;;;;;;;2.65;2.28;;;;;;;;;;5015686;28;20652;-82
2022/10/26 05:20:04;;;;;;;3.00;2.70;;;;;;;;;;5016224;28;20641;-83
2022/10/26 05:22:33;;;;;;;3.13;2.83;;;;;;;;;;5016756;28;20250;-83
2022/10/26 05:25:01;;;;;;;3.13;2.85;;;;;;;;;;5015907;28;20391;-83
2022/10/26 05:27:28;;;;;;;2.33;2.13;;;;;;;;;;5016064;28;20310;-82
2022/10/26 05:29:56;;;;;;;2.65;2.45;;;;;;;;;;5015955;28;20309;-81
2022/10/26 05:32:23;;;;;;;2.35;2.10;;;;;;;;;;5015466;28;20229;-82
2022/10/26 05:34:51;;;;;;;3.00;2.40;;;;;;;;;;5015527;28;20549;-83
2022/10/26 05:37:18;;;;;;;3.05;2.30;;;;;;;;;;5015401;28;20302;-81
2022/10/26 05:39:47;;;;;;;2.10;1.90;;;;;;;;;;5015218;28;20294;-82
2022/10/26 05:42:14;;;;;;;1.98;1.80;;;;;;;;;;5014964;28;20247;-82
2022/10/26 05:44:42;;;;;;;1.70;1.60;;;;;;;;;;5015855;28;20617;-82
2022/10/26 05:47:09;;;;;;;2.30;2.08;;;;;;;;;;5015627;28;20610;-82
2022/10/26 05:49:37;;;;;;;3.45;2.15;;;;;;;;;;5015027;28;20759;-83
2022/10/26 05:52:05;;;;;;;2.00;1.80;;;;;;;;;;5015985;28;20253;-82
2022/10/26 05:54:32;;;;;;;3.53;1.83;;;;;;;;;;5015946;28;20205;-82
2022/10/26 05:57:02;;;;;;;1.90;1.80;;;;;;;;;;5016353;28;20234;-81
2022/10/26 05:59:31;;;;;;;2.08;1.88;;;;;;;;;;5015651;28;20203;-83
2022/10/26 06:02:08;;;;;;;3.22;2.10;;;;;;;;;;5014418;28;20258;-85
2022/10/26 06:04:39;;;;;;;3.50;3.20;;;;;;;;;;5019156;28;20197;-83
2022/10/26 06:07:13;;;;;;;3.50;2.63;;;;;;;;;;5017934;28;20217;-84
2022/10/26 06:09:42;;;;;;;3.25;2.95;;;;;;;;;;5015165;28;20195;-83
2022/10/26 06:12:13;;;;;;;4.50;2.10;;;;;;;;;;5010135;28;20293;-84
2022/10/26 06:14:42;;;;;;;2.15;1.95;;;;;;;;;;5005949;28;20233;-84
2022/10/26 06:17:25;;;;;;;1.58;1.48;;;;;;;;;;5014626;28;20203;-83
2022/10/26 06:20:08;;;;;;;1.95;1.85;;;;;;;;;;5015206;28;20191;-87
2022/10/26 06:22:49;;;;;;;1.60;1.50;;;;;;;;;;4996009;28;20311;-84
2022/10/26 06:25:27;;;;;;;2.20;2.00;;;;;;;;;;4995908;28;20194;-84
2022/10/26 06:28:06;;;;;;;1.98;1.88;;;;;;;;;;4996304;28;20204;-85
2022/10/26 06:30:33;;;;;;;2.00;1.90;;;;;;;;;;4995678;28;20207;-85
2022/10/26 06:33:01;;;;;;;1.45;1.40;;;;;;;;;;5000530;28;20718;-85
2022/10/26 06:35:36;;;;;;;2.63;2.05;;;;;;;;;;5015670;28;20210;-85
2022/10/26 06:38:09;;;;;;;2.65;2.28;;;;;;;;;;5015420;28;20187;-85
2022/10/26 06:40:39;;;;;;;2.45;2.22;;;;;;;;;;5015671;28;20201;-86
2022/10/26 06:43:13;;;;;;;2.35;2.15;;;;;;;;;;5015069;28;20245;-87
2022/10/26 06:45:43;;;;;;;2.45;2.25;;;;;;;;;;5015158;28;20183;-85
2022/10/26 06:48:13;;;;;;;2.47;2.28;;;;;;;;;;5013178;28;20199;-88
2022/10/26 06:50:46;;;;;;;2.60;2.40;;;;;;;;;;5014516;28;20222;-87
2022/10/26 06:53:21;;;;;;;2.20;2.10;;;;;;;;;;5015458;28;20644;-87
2022/10/26 06:55:51;;;;;;;2.97;2.78;;;;;;;;;;5014614;28;20193;-85
2022/10/26 06:58:22;;;;;;;2.42;2.22;;;;;;;;;;5014949;28;20273;-86
2022/10/26 07:00:52;;;;;;;2.83;2.40;;;;;;;;;;5014392;28;20676;-86
2022/10/26 07:03:20;;;;;;;2.72;2.30;;;;;;;;;;5014393;28;20592;-86
2022/10/26 07:05:47;;;;;;;1.77;1.67;;;;;;;;;;5014194;28;20207;-86
2022/10/26 07:08:16;;;;;;;2.67;1.92;;;;;;;;;;5014916;28;20203;-86
2022/10/26 07:10:47;;;;;;;1.90;1.80;;;;;;;;;;5014543;28;20600;-86
2022/10/26 07:13:14;;;;;;;2.05;1.80;;;;;;;;;;5015393;28;20230;-86
2022/10/26 07:15:43;;;;;;;1.80;1.38;;;;;;;;;;5016221;28;20289;-86
2022/10/26 07:18:11;;;;;;;1.85;1.75;;;;;;;;;;5015914;28;20199;-87
2022/10/26 07:20:40;;;;;;;2.95;1.98;;;;;;;;;;5015476;28;20195;-87
2022/10/26 07:23:10;;;;;;;4.60;2.75;;;;;;;;;;5014210;28;20268;-86
2022/10/26 07:25:39;;;;;;;2.97;2.38;;;;;;;;;;5015206;28;20210;-86
2022/10/26 07:28:08;;;;;;;2.60;2.25;;;;;;;;;;5015383;28;20668;-86
2022/10/26 07:30:37;;;;;;;4.18;3.13;;;;;;;;;;5016962;28;20604;-87
2022/10/26 07:33:08;;;;;;;3.60;2.45;;;;;;;;;;5016515;28;20223;-86
2022/10/26 07:35:36;;;;;;;3.10;2.88;;;;;;;;;;5016313;28;20282;-86
2022/10/26 07:38:05;;;;;;;4.00;3.60;;;;;;;;;;5016010;28;20203;-85
2022/10/26 07:40:33;;;;;;;4.18;3.33;;;;;;;;;;5015870;28;20286;-87
2022/10/26 07:43:01;;;;;;;2.90;2.58;;;;;;;;;;5016263;28;20290;-86
2022/10/26 07:45:30;;;;;;;2.47;2.30;;;;;;;;;;5017180;28;20286;-86
2022/10/26 07:47:58;;;;;;;2.53;2.13;;;;;;;;;;5018896;28;20245;-86
2022/10/26 07:50:27;;;;;;;4.38;2.60;;;;;;;;;;5019034;28;20234;-86
2022/10/26 07:52:54;;;;;;;3.03;2.70;;;;;;;;;;5019394;28;20258;-87
2022/10/26 07:55:22;;;;;;;2.95;2.33;;;;;;;;;;5019909;28;20265;-86
2022/10/26 07:57:49;;;;;;;2.58;2.08;;;;;;;;;;5018716;28;20218;-86
2022/10/26 08:00:17;;;;;;;2.13;1.95;;;;;;;;;;5018794;28;20245;-86
2022/10/26 08:02:44;;;;;;;1.58;1.48;;;;;;;;;;5018665;28;20219;-86
2022/10/26 08:05:12;;;;;;;1.25;1.23;;;;;;;;;;5018257;28;20294;-87
2022/10/26 08:07:44;;;;;;;1.60;1.50;;;;;;;;;;5019039;28;20206;-87
2022/10/26 08:10:13;;;;;;;1.60;1.50;;;;;;;;;;5018795;28;20636;-88
2022/10/26 08:12:41;;;;;;;1.95;1.85;;;;;;;;;;5045065;22;20323;-86
2022/10/26 08:15:10;;;;;;;2.05;1.95;;;;;;;;;;5078525;28;20197;-86
2022/10/26 08:17:37;;;;;;;1.58;1.48;;;;;;;;;;5078031;28;20201;-86
2022/10/26 08:20:06;;;;;;;1.75;1.63;;;;;;;;;;5079401;28;20221;-86
2022/10/26 08:22:33;;;;;;;1.60;1.50;;;;;;;;;;5078408;28;20304;-85
2022/10/26 08:25:02;;;;;;;1.70;1.60;;;;;;;;;;5078735;28;20229;-84
2022/10/26 08:27:30;;;;;;;3.28;2.20;;;;;;;;;;5078800;28;20208;-85
2022/10/26 08:29:57;;;;;;;2.47;2.28;;;;;;;;;;5078001;28;20287;-86
2022/10/26 08:32:25;;;;;;;2.97;2.70;;;;;;;;;;5078239;28;20224;-86
2022/10/26 08:34:52;;;;;;;3.67;2.92;;;;;;;;;;5075632;28;20295;-86
2022/10/26 08:37:20;;;;;;;3.88;3.42;;;;;;;;;;5094534;28;20208;-86
2022/10/26 08:39:47;;;;;;;2.90;2.70;;;;;;;;;;5085179;28;20716;-87
2022/10/26 08:42:21;;;;;;;2.78;1.90;;;;;;;;;;5073830;28;20304;-87
2022/10/26 08:44:51;;;;;;;3.65;2.35;;;;;;;;;;5074702;28;20210;-87
2022/10/26 08:47:22;;;;;;;3.00;1.60;;;;;;;;;;5075465;28;20203;-87
2022/10/26 08:49:54;;;;;;;1.98;1.60;;;;;;;;;;5074465;28;20283;-86
2022/10/26 08:52:26;;;;;;;3.33;1.85;;;;;;;;;;5072936;28;20220;-87
2022/10/26 08:54:56;;;;;;;2.45;1.50;;;;;;;;;;5074367;28;20189;-87
2022/10/26 08:57:28;;;;;;;1.40;1.30;;;;;;;;;;5073004;28;20204;-86
2022/10/26 09:00:00;;;;;;;1.48;1.40;;;;;;;;;;5071251;28;20207;-86
2022/10/26 09:02:28;;;;;;;1.30;1.20;;;;;;;;;;5071397;28;20245;-86
2022/10/26 09:04:59;;;;;;;1.92;1.83;;;;;;;;;;5073182;28;20649;-87
2022/10/26 09:07:40;;;;;;;1.55;1.48;;;;;;;;;;5072231;28;20201;-87
2022/10/26 09:10:37;;;;;;;3.33;1.58;;;;;;;;;;5053789;28;20209;-86
2022/10/26 09:13:17;;;;;;;1.92;1.60;;;;;;;;;;5053483;28;20221;-87
2022/10/26 09:15:56;;;;;;;3.10;1.90;;;;;;;;;;5054112;28;20207;-87
2022/10/26 09:18:38;;;;;;;2.10;1.90;;;;;;;;;;5054229;28;20212;-86
2022/10/26 09:21:18;;;;;;;2.05;1.70;;;;;;;;;;5054223;28;20615;-87
2022/10/26 09:23:57;;;;;;;3.30;2.70;;;;;;;;;;5054027;28;20312;-86
2022/10/26 09:26:37;;;;;;;2.97;2.67;;;;;;;;;;5054290;28;20198;-86
2022/10/26 09:29:13;;;;;;;4.72;2.03;;;;;;;;;;5053947;28;20259;-86
2022/10/26 09:31:43;;;;;;;4.63;2.22;;;;;;;;;;5053936;28;20574;-87
2022/10/26 09:34:20;;;;;;;2.20;2.00;;;;;;;;;;5054071;28;20495;-86
2022/10/26 09:36:50;;;;;;;2.75;1.90;;;;;;;;;;5083423;28;20215;-86
2022/10/26 09:39:24;;;;;;;4.25;3.05;;;;;;;;;;5094448;28;20575;-86
2022/10/26 09:41:57;;;;;;;2.72;2.00;;;;;;;;;;5094505;28;20207;-86
2022/10/26 09:44:30;;;;;;;2.00;1.80;;;;;;;;;;5094694;28;20200;-86
2022/10/26 09:47:04;;;;;;;1.92;1.60;;;;;;;;;;5094187;28;20210;-87
2022/10/26 09:49:40;;;;;;;1.67;1.58;;;;;;;;;;5094464;28;20578;-87
2022/10/26 09:52:07;;;;;;;2.13;1.38;;;;;;;;;;5094013;28;20261;-87
2022/10/26 09:54:35;;;;;;;1.63;1.42;;;;;;;;;;5094586;28;20215;-87
2022/10/26 09:57:03;;;;;;;1.70;1.30;;;;;;;;;;5094321;28;20287;-86
2022/10/26 09:59:36;;;;;;;2.55;1.52;;;;;;;;;;5093990;28;20188;-87
2022/10/26 10:02:34;;;;;;;1.40;1.30;;;;;;;;;;5094888;28;20473;-86
2022/10/26 10:05:02;;;;;;;2.42;1.90;;;;;;;;;;5093333;28;20204;-87
2022/10/26 10:07:29;;;;;;;1.70;1.35;;;;;;;;;;5094097;28;20206;-86
2022/10/26 10:10:12;;;;;;;1.73;1.50;;;;;;;;;;5094170;28;20243;-86
2022/10/26 10:12:39;;;;;;;1.55;1.45;;;;;;;;;;5094535;28;20228;-86
2022/10/26 10:15:19;;;;;;;7.78;1.67;;;;;;;;;;5093971;28;20723;-86
2022/10/26 10:17:49;;;;;;;2.40;1.98;;;;;;;;;;5095077;28;20283;-86
2022/10/26 10:20:23;;;;;;;5.45;1.60;;;;;;;;;;5094354;28;20293;-86
2022/10/26 10:22:58;;;;;;;3.03;1.80;;;;;;;;;;5094048;28;20248;-86
2022/10/26 10:25:35;;;;;;;3.05;1.58;;;;;;;;;;5093782;28;20206;-87
2022/10/26 10:28:03;;;;;;;2.20;1.60;;;;;;;;;;5093841;28;20682;-86
2022/10/26 10:30:34;;;;;;;2.22;1.67;;;;;;;;;;5093727;28;20200;-87
2022/10/26 10:33:06;;;;;;;4.25;1.65;;;;;;;;;;5095012;28;20310;-86
2022/10/26 10:35:34;;;;;;;2.05;1.83;;;;;;;;;;5094082;28;20203;-86
2022/10/26 10:38:01;;;;;;;1.75;1.40;;;;;;;;;;5093998;28;20206;-85
2022/10/26 10:40:31;;;;;;;2.63;1.70;;;;;;;;;;5093630;28;20317;-86
2022/10/26 10:43:12;;;;;;;3.03;1.83;;;;;;;;;;5095354;28;20257;-86
2022/10/26 10:45:41;;;;;;;4.13;1.70;;;;;;;;;;5095098;28;20264;-85
2022/10/26 10:48:16;;;;;;;4.18;1.60;;;;;;;;;;5094273;28;20731;-86
2022/10/26 10:50:55;;;;;;;1.73;1.63;;;;;;;;;;5094212;28;20762;-87
2022/10/26 10:53:29;;;;;;;2.13;1.50;;;;;;;;;;5093656;28;20334;-87
2022/10/26 10:56:26;;;;;;;1.73;1.50;;;;;;;;;;5093903;28;20192;-86
2022/10/26 10:59:20;;;;;;;2.67;1.85;;;;;;;;;;5093516;28;20200;-86
2022/10/26 11:01:51;;;;;;;1.52;1.38;;;;;;;;;;5083770;28;20196;-87
2022/10/26 11:04:50;;;;;;;2.38;1.73;;;;;;;;;;5093412;28;20226;-86
2022/10/26 11:07:19;;;;;;;1.70;1.42;;;;;;;;;;5093447;28;20208;-86
2022/10/26 11:09:47;;;;;;;3.13;1.60;;;;;;;;;;5092524;28;20287;-86
2022/10/26 11:12:18;;;;;;;1.77;1.35;;;;;;;;;;5093768;28;20667;-87
2022/10/26 11:14:47;;;;;;;1.70;1.42;;;;;;;;;;5093948;28;20221;-86
2022/10/26 11:17:20;;;;;;;1.15;1.15;;;;;;;;;;5093807;28;20228;-87
2022/10/26 11:19:52;;;;;;;2.75;1.75;;;;;;;;;;5095094;28;20193;-86
2022/10/26 11:22:24;;;;;;;1.33;1.30;;;;;;;;;;5097803;28;20239;-86
2022/10/26 11:24:58;;;;;;;2.25;1.42;;;;;;;;;;5097952;28;20567;-87
2022/10/26 11:27:29;;;;;;;2.38;2.03;;;;;;;;;;5097779;28;20192;-86
2022/10/26 11:30:03;;;;;;;4.53;1.70;;;;;;;;;;5096925;28;20231;-86
2022/10/26 11:32:38;;;;;;;2.00;1.80;;;;;;;;;;5096466;28;20298;-87
2022/10/26 11:35:13;;;;;;;1.42;1.30;;;;;;;;;;5096360;28;20707;-85
2022/10/26 11:37:48;;;;;;;3.92;2.05;;;;;;;;;;5096517;28;20220;-87
2022/10/26 11:40:25;;;;;;;1.83;1.70;;;;;;;;;;5096421;28;20224;-87
2022/10/26 11:43:04;;;;;;;1.60;1.45;;;;;;;;;;5095890;28;20307;-87
2022/10/26 11:45:34;;;;;;;3.00;2.00;;;;;;;;;;5097138;28;20694;-88
2022/10/26 11:48:13;;;;;;;2.20;1.70;;;;;;;;;;5095752;28;20239;-87
2022/10/26 11:50:44;;;;;;;2.10;1.77;;;;;;;;;;5096117;28;20291;-86
2022/10/26 11:53:16;;;;;;;2.50;1.50;;;;;;;;;;5095735;28;20228;-86
2022/10/26 11:55:47;;;;;;;2.83;1.95;;;;;;;;;;5096608;28;20215;-87
2022/10/26 11:58:15;;;;;;;1.58;1.48;;;;;;;;;;5095886;28;20291;-87
2022/10/26 12:00:48;;;;;;;1.70;1.60;;;;;;;;;;5095923;28;20200;-87
2022/10/26 12:03:20;;;;;;;3.08;1.98;;;;;;;;;;5095548;28;20224;-86
2022/10/26 12:05:51;;;;;;;8.13;2.20;;;;;;;;;;5096168;28;20589;-88
2022/10/26 12:08:26;;;;;;;3.53;1.88;;;;;;;;;;5095047;28;20211;-87
2022/10/26 12:11:01;;;;;;;3.75;1.90;;;;;;;;;;5095512;28;20299;-86
2022/10/26 12:13:33;;;;;;;2.42;1.15;;;;;;;;;;5095659;28;20746;-88
2022/10/26 12:16:07;;;;;;;2.13;2.03;;;;;;;;;;5095607;28;20573;-87
2022/10/26 12:18:42;;;;;;;2.40;2.08;;;;;;;;;;5095191;28;20572;-87
2022/10/26 12:21:10;;;;;;;2.75;1.70;;;;;;;;;;5095191;28;20645;-87
2022/10/26 12:23:53;;;;;;;18.48;4.38;;;;;;;;;;5095132;28;20270;-87
2022/10/26 12:26:50;;;;;;;2.53;1.70;;;;;;;;;;5095427;28;20188;-87
2022/10/26 12:29:40;;;;;;;2.13;2.00;;;;;;;;;;5094809;28;20211;-87
2022/10/26 12:32:51;;;;;;;2.72;1.60;;;;;;;;;;5094524;28;20210;-87
2022/10/26 12:35:46;;;;;;;2.53;1.50;;;;;;;;;;5080268;28;20230;-88
2022/10/26 12:38:57;;;;;;;2.17;1.63;;;;;;;;;;5094054;28;20240;-87
2022/10/26 12:41:26;;;;;;;2.40;1.60;;;;;;;;;;5094913;28;20233;-86
2022/10/26 12:43:59;;;;;;;2.08;1.98;;;;;;;;;;5095010;28;20220;-86
2022/10/26 12:46:43;;;;;;;4.38;1.60;;;;;;;;;;5094447;28;20681;-87
2022/10/26 12:49:59;;;;;;;3.72;1.73;;;;;;;;;;5094677;28;20200;-87
2022/10/26 12:52:50;;;;;;;1.60;1.50;;;;;;;;;;5093371;28;20220;-87
2022/10/26 12:55:58;;;;;;;3.67;1.60;;;;;;;;;;5094436;28;20224;-86
2022/10/26 12:58:47;;;;;;;1.88;1.77;;;;;;;;;;5094785;28;20197;-87
2022/10/26 13:02:05;;;;;;;2.40;1.25;;;;;;;;;;5094281;28;20219;-87
2022/10/26 13:05:28;;;;;;;1.00;1.00;;;;;;;;;;5081150;28;20283;-87
2022/10/26 13:08:04;;;;;;;1.42;1.00;;;;;;;;;;5085081;28;20204;-87
2022/10/26 13:10:31;;;;;;;1.30;1.23;;;;;;;;;;5093421;28;20222;-87
2022/10/26 13:13:00;;;;;;;3.80;2.35;;;;;;;;;;5093812;28;20259;-87
2022/10/26 13:15:30;;;;;;;1.92;1.63;;;;;;;;;;5094066;28;20331;-87
2022/10/26 13:18:01;;;;;;;1.83;1.65;;;;;;;;;;5094040;28;20203;-87
2022/10/26 13:20:31;;;;;;;1.23;1.13;;;;;;;;;;5094346;28;20185;-87
2022/10/26 13:22:58;;;;;;;2.92;1.70;;;;;;;;;;5093951;28;20219;-87
2022/10/26 13:25:29;;;;;;;2.38;1.83;;;;;;;;;;5093902;28;20211;-87
2022/10/26 13:28:07;;;;;;;3.17;1.60;;;;;;;;;;5094150;28;20198;-86
2022/10/26 13:30:47;;;;;;;1.48;1.38;;;;;;;;;;5093896;28;20283;-87
2022/10/26 13:33:24;;;;;;;3.67;1.75;;;;;;;;;;5093396;28;20215;-87
2022/10/26 13:35:55;;;;;;;1.70;1.48;;;;;;;;;;5093296;28;20226;-86
2022/10/26 13:38:28;;;;;;;1.55;1.45;;;;;;;;;;5093314;28;20208;-87
2022/10/26 13:41:06;;;;;;;2.75;1.98;;;;;;;;;;5093458;28;20204;-87
2022/10/26 13:43:34;;;;;;;1.80;1.67;;;;;;;;;;5092614;28;20223;-87
2022/10/26 13:46:03;;;;;;;2.65;1.70;;;;;;;;;;5093424;28;20204;-88
2022/10/26 13:48:38;;;;;;;3.40;1.40;;;;;;;;;;5093152;28;20283;-88
2022/10/26 13:51:15;;;;;;;1.75;1.25;;;;;;;;;;5093372;28;20204;-87
2022/10/26 13:53:47;;;;;;;1.67;1.58;;;;;;;;;;5093278;28;20220;-87
2022/10/26 13:56:25;;;;;;;1.38;1.23;;;;;;;;;;5093356;28;20311;-86
2022/10/26 13:58:59;;;;;;;1.77;1.50;;;;;;;;;;5092900;28;20196;-87
2022/10/26 14:01:28;;;;;;;2.35;1.33;;;;;;;;;;5093360;28;20201;-86
2022/10/26 14:03:56;;;;;;;1.30;1.20;;;;;;;;;;5092598;28;20224;-87
2022/10/26 14:06:28;;;;;;;4.15;1.73;;;;;;;;;;5092486;28;20287;-87
2022/10/26 14:08:58;;;;;;;2.97;1.60;;;;;;;;;;5092942;28;20207;-87
2022/10/26 14:11:34;;;;;;;1.38;1.27;;;;;;;;;;5093187;28;20192;-87
2022/10/26 14:14:02;;;;;;;1.98;1.20;;;;;;;;;;5094940;28;20235;-85
2022/10/26 14:16:31;;;;;;;3.33;1.25;;;;;;;;;;5094781;28;20220;-84
2022/10/26 14:18:59;;;;;;;2.20;1.30;;;;;;;;;;5094990;28;20199;-83
2022/10/26 14:21:26;;;;;;;3.50;1.30;;;;;;;;;;5094845;28;20283;-84
2022/10/26 14:23:57;;;;;;;3.15;1.50;;;;;;;;;;5094515;28;20579;-83
2022/10/26 14:26:28;;;;;;;1.67;1.58;;;;;;;;;;5094009;28;20188;-84
2022/10/26 14:28:58;;;;;;;4.30;2.03;;;;;;;;;;5094747;28;20187;-84
2022/10/26 14:31:28;;;;;;;1.67;1.30;;;;;;;;;;5094827;28;20200;-86
2022/10/26 14:33:58;;;;;;;1.73;1.20;;;;;;;;;;5094626;28;20218;-86
2022/10/26 14:36:29;;;;;;;1.70;1.55;;;;;;;;;;5094473;28;20224;-84
2022/10/26 14:39:01;;;;;;;1.30;1.20;;;;;;;;;;5094451;28;20446;-85
2022/10/26 14:41:30;;;;;;;2.75;1.20;;;;;;;;;;5094933;28;20851;-85
2022/10/26 14:44:00;;;;;;;1.40;1.30;;;;;;;;;;5094665;28;20714;-84
2022/10/26 14:46:35;;;;;;;1.48;1.27;;;;;;;;;;5094338;28;20263;-82
2022/10/26 14:49:04;;;;;;;1.48;0.90;;;;;;;;;;5095575;28;20279;-85
2022/10/26 14:51:35;;;;;;;1.23;1.13;;;;;;;;;;5095201;28;20200;-83
2022/10/26 14:54:04;;;;;;;1.27;0.90;;;;;;;;;;5095552;28;20652;-83
2022/10/26 14:56:40;;;;;;;0.73;0.70;;;;;;;;;;5098677;28;20310;-82
2022/10/26 14:59:17;;;;;;;0.95;0.90;;;;;;;;;;5098934;28;20188;-82
2022/10/26 15:01:53;;;;;;;1.42;1.33;;;;;;;;;;5098909;28;20275;-83
2022/10/26 15:04:35;;;;;;;2.00;1.73;;;;;;;;;;5098737;28;20219;-82
2022/10/26 15:07:13;;;;;;;1.35;1.15;;;;;;;;;;5098151;28;20176;-80
2022/10/26 15:09:44;;;;;;;1.50;1.20;;;;;;;;;;5098105;28;20291;-82
2022/10/26 15:12:30;;;;;;;1.88;1.67;;;;;;;;;;5098285;28;20224;-81
2022/10/26 15:15:10;;;;;;;1.65;1.15;;;;;;;;;;5097492;28;20177;-81